PWSweather.com
Personal Weather Stations
Station Observations
EMMBROOK1
Emmbrook, WokinghamGB

EmmbrookWokinghamGB

Lat: 51.42698, Lon: -0.850575

Elevation: 144

Station Type: WH1081

http://www.wokinghamweather.co.uk

High Low Average
Temperature 70.5°F21.4°F 49.3°F9.6°F 61.1°F16.2°F
Dew Point 58.0°F14.4°F 48.6°F9.2°F 51.7°F10.9°F
Winds 9.0 mph -14.5 mph - Calm Calm 3.8 mph 6.1 mph
Wind Gusts 15.2 mph24.5 mph -- 5.9 mph9.5 mph
Humidity 98% 50% 74%
Pressure 30.16 in1021.30 in 30.04 in1017.30 in -
Precipitation 0.00 in0.00 in - -
Hour Temp Dew Point Humidity Winds Wind Gusts Pressure Precip Precip Rate Daily Precip Total
12:00 AM 53.2°F11.8°C 50.4°F10.2°C 90% Calm Calm -- 30.04 in1017.3 mb 0.00 in0.0 mm 0.00 in0.0 mm 0.00 in0.0 mm
12:15 AM 52.9°F11.6°C 50.0°F10.0°C 90% Calm Calm -- 30.04 in1017.3 mb 0.00 in0.0 mm 0.00 in0.0 mm 0.00 in0.0 mm
12:30 AM 52.5°F11.4°C 50.0°F10.0°C 91% Calm Calm -- 30.04 in1017.3 mb 0.00 in0.0 mm 0.00 in0.0 mm 0.00 in0.0 mm
12:45 AM 52.0°F11.1°C 49.4°F9.7°C 91% Calm Calm -- 30.04 in1017.3 mb 0.00 in0.0 mm 0.00 in0.0 mm 0.00 in0.0 mm
01:00 AM 52.0°F11.1°C 49.7°F9.8°C 92% Calm Calm -- 30.04 in1017.3 mb 0.00 in0.0 mm 0.00 in0.0 mm 0.00 in0.0 mm
01:15 AM 51.4°F10.8°C 49.5°F9.7°C 93% Calm Calm -- 30.04 in1017.3 mb 0.00 in0.0 mm 0.00 in0.0 mm 0.00 in0.0 mm
01:30 AM 51.3°F10.7°C 49.3°F9.6°C 93% Calm Calm -- 30.04 in1017.3 mb 0.00 in0.0 mm 0.00 in0.0 mm 0.00 in0.0 mm
01:45 AM 51.1°F10.6°C 49.4°F9.7°C 94% Calm Calm -- 30.05 in1017.6 mb 0.00 in0.0 mm 0.00 in0.0 mm 0.00 in0.0 mm
02:00 AM 50.9°F10.5°C 49.2°F9.6°C 94% Calm Calm -- 30.05 in1017.6 mb 0.00 in0.0 mm 0.00 in0.0 mm 0.00 in0.0 mm
02:15 AM 50.9°F10.5°C 49.5°F9.7°C 95% Calm Calm -- 30.05 in1017.6 mb 0.00 in0.0 mm 0.00 in0.0 mm 0.00 in0.0 mm
02:30 AM 50.2°F10.1°C 48.8°F9.3°C 95% Calm Calm -- 30.05 in1017.6 mb 0.00 in0.0 mm 0.00 in0.0 mm 0.00 in0.0 mm
02:45 AM 50.0°F10.0°C 48.6°F9.2°C 95% Calm Calm -- 30.06 in1017.9 mb 0.00 in0.0 mm 0.00 in0.0 mm 0.00 in0.0 mm
03:00 AM 50.5°F10.3°C 49.2°F9.6°C 95% Calm Calm -- 30.05 in1017.6 mb 0.00 in0.0 mm 0.00 in0.0 mm 0.00 in0.0 mm
03:15 AM 49.8°F9.9°C 49.0°F9.4°C 97% Calm Calm -- 30.06 in1017.9 mb 0.00 in0.0 mm 0.00 in0.0 mm 0.00 in0.0 mm
03:30 AM 49.8°F9.9°C 49.0°F9.4°C 97% Calm Calm -- 30.06 in1017.9 mb 0.00 in0.0 mm 0.00 in0.0 mm 0.00 in0.0 mm
03:45 AM 49.6°F9.8°C 48.8°F9.3°C 97% Calm Calm -- 30.06 in1017.9 mb 0.00 in0.0 mm 0.00 in0.0 mm 0.00 in0.0 mm
04:00 AM 49.6°F9.8°C 48.8°F9.3°C 97% 0.1 mph SE0.2 kmh SE 1.6 mph2.6 kmh 30.06 in1017.9 mb 0.00 in0.0 mm 0.00 in0.0 mm 0.00 in0.0 mm
04:15 AM 49.6°F9.8°C 48.8°F9.3°C 97% 0.2 mph SW0.3 kmh SW 0.7 mph1.1 kmh 30.07 in1018.3 mb 0.00 in0.0 mm 0.00 in0.0 mm 0.00 in0.0 mm
04:30 AM 49.5°F9.7°C 48.6°F9.2°C 97% 0.2 mph S0.3 kmh S 0.7 mph1.1 kmh 30.07 in1018.3 mb 0.00 in0.0 mm 0.00 in0.0 mm 0.00 in0.0 mm
04:45 AM 49.5°F9.7°C 48.6°F9.2°C 97% Calm Calm -- 30.07 in1018.3 mb 0.00 in0.0 mm 0.00 in0.0 mm 0.00 in0.0 mm
05:00 AM 49.5°F9.7°C 48.9°F9.4°C 98% Calm Calm -- 30.08 in1018.6 mb 0.00 in0.0 mm 0.00 in0.0 mm 0.00 in0.0 mm
05:15 AM 49.3°F9.6°C 48.7°F9.3°C 98% Calm Calm 0.7 mph1.1 kmh 30.09 in1019.0 mb 0.00 in0.0 mm 0.00 in0.0 mm 0.00 in0.0 mm
05:30 AM 49.3°F9.6°C 48.7°F9.3°C 98% Calm Calm -- 30.09 in1019.0 mb 0.00 in0.0 mm 0.00 in0.0 mm 0.00 in0.0 mm
05:45 AM 49.3°F9.6°C 48.7°F9.3°C 98% 0.3 mph S0.5 kmh S 1.6 mph2.6 kmh 30.09 in1019.0 mb 0.00 in0.0 mm 0.00 in0.0 mm 0.00 in0.0 mm
06:00 AM 50.4°F10.2°C 49.8°F9.9°C 98% 0.1 mph NE0.2 kmh NE 0.7 mph1.1 kmh 30.10 in1019.3 mb 0.00 in0.0 mm 0.00 in0.0 mm 0.00 in0.0 mm
06:15 AM 51.1°F10.6°C 50.5°F10.3°C 98% Calm Calm 0.7 mph1.1 kmh 30.10 in1019.3 mb 0.00 in0.0 mm 0.00 in0.0 mm 0.00 in0.0 mm
06:30 AM 52.5°F11.4°C 52.0°F11.1°C 98% 2.2 mph WSW3.5 kmh WSW 4.5 mph7.2 kmh 30.11 in1019.6 mb 0.00 in0.0 mm 0.00 in0.0 mm 0.00 in0.0 mm
06:45 AM 53.4°F11.9°C 52.9°F11.6°C 98% 2.0 mph SW3.2 kmh SW 3.1 mph5.0 kmh 30.11 in1019.6 mb 0.00 in0.0 mm 0.00 in0.0 mm 0.00 in0.0 mm
07:00 AM 54.0°F12.2°C 53.1°F11.7°C 97% 3.2 mph SW5.1 kmh SW 4.5 mph7.2 kmh 30.11 in1019.6 mb 0.00 in0.0 mm 0.00 in0.0 mm 0.00 in0.0 mm
07:15 AM 54.9°F12.7°C 54.0°F12.2°C 97% 2.4 mph SW3.9 kmh SW 3.8 mph6.1 kmh 30.12 in1020.0 mb 0.00 in0.0 mm 0.00 in0.0 mm 0.00 in0.0 mm
07:30 AM 56.1°F13.4°C 55.6°F13.1°C 98% 3.7 mph SW6.0 kmh SW 5.4 mph8.7 kmh 30.12 in1020.0 mb 0.00 in0.0 mm 0.00 in0.0 mm 0.00 in0.0 mm
07:45 AM 57.4°F14.1°C 56.8°F13.8°C 98% 3.8 mph SW6.1 kmh SW 6.0 mph9.7 kmh 30.12 in1020.0 mb 0.00 in0.0 mm 0.00 in0.0 mm 0.00 in0.0 mm
08:00 AM 58.8°F14.9°C 58.0°F14.4°C 97% 3.5 mph SW5.6 kmh SW 4.5 mph7.2 kmh 30.13 in1020.3 mb 0.00 in0.0 mm 0.00 in0.0 mm 0.00 in0.0 mm
08:15 AM 59.9°F15.5°C 57.6°F14.2°C 92% 2.8 mph WNW4.5 kmh WNW 3.8 mph6.1 kmh 30.13 in1020.3 mb 0.00 in0.0 mm 0.00 in0.0 mm 0.00 in0.0 mm
08:30 AM 61.3°F16.3°C 56.1°F13.4°C 83% 2.7 mph SSW4.3 kmh SSW 3.8 mph6.1 kmh 30.13 in1020.3 mb 0.00 in0.0 mm 0.00 in0.0 mm 0.00 in0.0 mm
08:45 AM 61.9°F16.6°C 55.0°F12.8°C 78% 3.4 mph WSW5.5 kmh WSW 4.5 mph7.2 kmh 30.13 in1020.3 mb 0.00 in0.0 mm 0.00 in0.0 mm 0.00 in0.0 mm
09:00 AM 63.1°F17.3°C 53.6°F12.0°C 71% 4.7 mph SE7.6 kmh SE 6.0 mph9.7 kmh 30.13 in1020.3 mb 0.00 in0.0 mm 0.00 in0.0 mm 0.00 in0.0 mm
09:15 AM 63.7°F17.6°C 54.1°F12.3°C 71% 4.6 mph WSW7.4 kmh WSW 8.3 mph13.4 kmh 30.14 in1020.7 mb 0.00 in0.0 mm 0.00 in0.0 mm 0.00 in0.0 mm
09:30 AM 64.2°F17.9°C 54.2°F12.3°C 70% 4.4 mph WSW7.1 kmh WSW 6.9 mph11.1 kmh 30.14 in1020.7 mb 0.00 in0.0 mm 0.00 in0.0 mm 0.00 in0.0 mm
09:45 AM 65.3°F18.5°C 54.5°F12.5°C 68% 4.5 mph WSW7.2 kmh WSW 5.4 mph8.7 kmh 30.14 in1020.7 mb 0.00 in0.0 mm 0.00 in0.0 mm 0.00 in0.0 mm
10:00 AM 65.7°F18.7°C 53.6°F12.0°C 65% 4.4 mph WSW7.1 kmh WSW 6.9 mph11.1 kmh 30.14 in1020.7 mb 0.00 in0.0 mm 0.00 in0.0 mm 0.00 in0.0 mm
10:15 AM 66.7°F19.3°C 53.8°F12.1°C 63% 5.7 mph SW9.2 kmh SW 8.3 mph13.4 kmh 30.14 in1020.7 mb 0.00 in0.0 mm 0.00 in0.0 mm 0.00 in0.0 mm
10:30 AM 66.9°F19.4°C 53.5°F11.9°C 62% 4.4 mph SW7.1 kmh SW 7.6 mph12.2 kmh 30.14 in1020.7 mb 0.00 in0.0 mm 0.00 in0.0 mm 0.00 in0.0 mm
10:45 AM 67.6°F19.8°C 51.9°F11.1°C 57% 5.3 mph WSW8.5 kmh WSW 8.3 mph13.4 kmh 30.14 in1020.7 mb 0.00 in0.0 mm 0.00 in0.0 mm 0.00 in0.0 mm
11:00 AM 67.8°F19.9°C 51.1°F10.6°C 55% 5.9 mph W9.5 kmh W 8.3 mph13.4 kmh 30.14 in1020.7 mb 0.00 in0.0 mm 0.00 in0.0 mm 0.00 in0.0 mm
11:15 AM 67.3°F19.6°C 51.1°F10.6°C 56% 4.5 mph SW7.2 kmh SW 6.0 mph9.7 kmh 30.13 in1020.3 mb 0.00 in0.0 mm 0.00 in0.0 mm 0.00 in0.0 mm
11:30 AM 68.0°F20.0°C 50.3°F10.2°C 53% 5.1 mph SW8.2 kmh SW 6.9 mph11.1 kmh 30.14 in1020.7 mb 0.00 in0.0 mm 0.00 in0.0 mm 0.00 in0.0 mm
11:45 AM 68.0°F20.0°C 49.7°F9.8°C 52% 4.8 mph SW7.7 kmh SW 6.0 mph9.7 kmh 30.14 in1020.7 mb 0.00 in0.0 mm 0.00 in0.0 mm 0.00 in0.0 mm
12:00 PM 68.0°F20.0°C 49.7°F9.8°C 52% 4.4 mph SW7.1 kmh SW 6.0 mph9.7 kmh 30.13 in1020.3 mb 0.00 in0.0 mm 0.00 in0.0 mm 0.00 in0.0 mm
12:15 PM 69.6°F20.9°C 50.2°F10.1°C 50% 6.8 mph SW10.9 kmh SW 9.8 mph15.8 kmh 30.14 in1020.7 mb 0.00 in0.0 mm 0.00 in0.0 mm 0.00 in0.0 mm
12:30 PM 68.0°F20.0°C 49.7°F9.8°C 52% 6.6 mph WSW10.6 kmh WSW 9.2 mph14.8 kmh 30.14 in1020.7 mb 0.00 in0.0 mm 0.00 in0.0 mm 0.00 in0.0 mm
12:45 PM 68.0°F20.0°C 50.3°F10.2°C 53% 5.8 mph WSW9.3 kmh WSW 9.2 mph14.8 kmh 30.14 in1020.7 mb 0.00 in0.0 mm 0.00 in0.0 mm 0.00 in0.0 mm
01:00 PM 68.0°F20.0°C 50.3°F10.2°C 53% 6.6 mph WSW10.6 kmh WSW 9.8 mph15.8 kmh 30.13 in1020.3 mb 0.00 in0.0 mm 0.00 in0.0 mm 0.00 in0.0 mm
01:15 PM 68.0°F20.0°C 50.8°F10.4°C 54% 6.2 mph WSW10.0 kmh WSW 10.7 mph17.2 kmh 30.13 in1020.3 mb 0.00 in0.0 mm 0.00 in0.0 mm 0.00 in0.0 mm
01:30 PM 69.4°F20.8°C 51.1°F10.6°C 52% 7.7 mph WSW12.4 kmh WSW 12.1 mph19.5 kmh 30.13 in1020.3 mb 0.00 in0.0 mm 0.00 in0.0 mm 0.00 in0.0 mm
01:45 PM 69.8°F21.0°C 51.4°F10.8°C 52% 7.0 mph WSW11.3 kmh WSW 10.7 mph17.2 kmh 30.13 in1020.3 mb 0.00 in0.0 mm 0.00 in0.0 mm 0.00 in0.0 mm
02:00 PM 70.2°F21.2°C 51.2°F10.7°C 51% 7.9 mph WSW12.7 kmh WSW 13.0 mph20.9 kmh 30.13 in1020.3 mb 0.00 in0.0 mm 0.00 in0.0 mm 0.00 in0.0 mm
02:15 PM 70.0°F21.1°C 51.6°F10.9°C 52% 8.2 mph WSW13.2 kmh WSW 13.6 mph21.9 kmh 30.12 in1020.0 mb 0.00 in0.0 mm 0.00 in0.0 mm 0.00 in0.0 mm
02:30 PM 70.2°F21.2°C 51.7°F10.9°C 52% 6.8 mph SW10.9 kmh SW 11.4 mph18.3 kmh 30.12 in1020.0 mb 0.00 in0.0 mm 0.00 in0.0 mm 0.00 in0.0 mm
02:45 PM 70.3°F21.3°C 51.9°F11.1°C 52% 6.8 mph W10.9 kmh W 9.8 mph15.8 kmh 30.11 in1019.6 mb 0.00 in0.0 mm 0.00 in0.0 mm 0.00 in0.0 mm
03:00 PM 70.0°F21.1°C 52.1°F11.2°C 53% 5.9 mph W9.5 kmh W 9.2 mph14.8 kmh 30.11 in1019.6 mb 0.00 in0.0 mm 0.00 in0.0 mm 0.00 in0.0 mm
03:15 PM 70.0°F21.1°C 51.6°F10.9°C 52% 6.3 mph SW10.1 kmh SW 9.2 mph14.8 kmh 30.10 in1019.3 mb 0.00 in0.0 mm 0.00 in0.0 mm 0.00 in0.0 mm
03:30 PM 70.5°F21.4°C 51.0°F10.6°C 50% 7.7 mph WSW12.4 kmh WSW 13.0 mph20.9 kmh 30.10 in1019.3 mb 0.00 in0.0 mm 0.00 in0.0 mm 0.00 in0.0 mm
03:45 PM 70.5°F21.4°C 51.0°F10.6°C 50% 7.3 mph WSW11.7 kmh WSW 13.0 mph20.9 kmh 30.10 in1019.3 mb 0.00 in0.0 mm 0.00 in0.0 mm 0.00 in0.0 mm
04:00 PM 70.5°F21.4°C 51.0°F10.6°C 50% 6.8 mph WSW10.9 kmh WSW 12.1 mph19.5 kmh 30.10 in1019.3 mb 0.00 in0.0 mm 0.00 in0.0 mm 0.00 in0.0 mm
04:15 PM 70.2°F21.2°C 51.2°F10.7°C 51% 8.4 mph SW13.5 kmh SW 12.1 mph19.5 kmh 30.10 in1019.3 mb 0.00 in0.0 mm 0.00 in0.0 mm 0.00 in0.0 mm
04:30 PM 69.8°F21.0°C 51.4°F10.8°C 52% 6.1 mph SW9.8 kmh SW 9.8 mph15.8 kmh 30.10 in1019.3 mb 0.00 in0.0 mm 0.00 in0.0 mm 0.00 in0.0 mm
04:45 PM 70.0°F21.1°C 51.0°F10.6°C 51% 7.2 mph WSW11.6 kmh WSW 9.8 mph15.8 kmh 30.10 in1019.3 mb 0.00 in0.0 mm 0.00 in0.0 mm 0.00 in0.0 mm
05:00 PM 70.3°F21.3°C 51.4°F10.8°C 51% 8.3 mph SW13.4 kmh SW 14.5 mph23.3 kmh 30.11 in1019.6 mb 0.00 in0.0 mm 0.00 in0.0 mm 0.00 in0.0 mm
05:15 PM 69.6°F20.9°C 51.2°F10.7°C 52% 7.5 mph WSW12.1 kmh WSW 11.4 mph18.3 kmh 30.11 in1019.6 mb 0.00 in0.0 mm 0.00 in0.0 mm 0.00 in0.0 mm
05:30 PM 69.4°F20.8°C 51.6°F10.9°C 53% 9.0 mph WSW14.5 kmh WSW 13.0 mph20.9 kmh 30.11 in1019.6 mb 0.00 in0.0 mm 0.00 in0.0 mm 0.00 in0.0 mm
05:45 PM 68.2°F20.1°C 51.4°F10.8°C 55% 7.5 mph WSW12.1 kmh WSW 9.8 mph15.8 kmh 30.12 in1020.0 mb 0.00 in0.0 mm 0.00 in0.0 mm 0.00 in0.0 mm
06:00 PM 68.0°F20.0°C 51.7°F10.9°C 56% 6.4 mph WSW10.3 kmh WSW 11.4 mph18.3 kmh 30.12 in1020.0 mb 0.00 in0.0 mm 0.00 in0.0 mm 0.00 in0.0 mm
06:15 PM 67.5°F19.7°C 52.7°F11.5°C 59% 6.7 mph WSW10.8 kmh WSW 9.8 mph15.8 kmh 30.12 in1020.0 mb 0.00 in0.0 mm 0.00 in0.0 mm 0.00 in0.0 mm
06:30 PM 66.9°F19.4°C 52.6°F11.4°C 60% 6.6 mph WSW10.6 kmh WSW 11.4 mph18.3 kmh 30.12 in1020.0 mb 0.00 in0.0 mm 0.00 in0.0 mm 0.00 in0.0 mm
06:45 PM 66.0°F18.9°C 51.8°F11.0°C 60% 8.9 mph WNW14.3 kmh WNW 15.2 mph24.5 kmh 30.13 in1020.3 mb 0.00 in0.0 mm 0.00 in0.0 mm 0.00 in0.0 mm
07:00 PM 65.5°F18.6°C 52.1°F11.2°C 62% 5.3 mph SW8.5 kmh SW 9.2 mph14.8 kmh 30.14 in1020.7 mb 0.00 in0.0 mm 0.00 in0.0 mm 0.00 in0.0 mm
07:15 PM 65.1°F18.4°C 52.2°F11.2°C 63% 6.6 mph WSW10.6 kmh WSW 9.8 mph15.8 kmh 30.14 in1020.7 mb 0.00 in0.0 mm 0.00 in0.0 mm 0.00 in0.0 mm
07:30 PM 64.6°F18.1°C 52.1°F11.2°C 64% 5.4 mph WSW8.7 kmh WSW 7.6 mph12.2 kmh 30.14 in1020.7 mb 0.00 in0.0 mm 0.00 in0.0 mm 0.00 in0.0 mm
07:45 PM 64.2°F17.9°C 52.6°F11.4°C 66% 3.3 mph SW5.3 kmh SW 6.0 mph9.7 kmh 30.14 in1020.7 mb 0.00 in0.0 mm 0.00 in0.0 mm 0.00 in0.0 mm
08:00 PM 63.7°F17.6°C 52.9°F11.6°C 68% 4.9 mph W7.9 kmh W 6.9 mph11.1 kmh 30.15 in1021.0 mb 0.00 in0.0 mm 0.00 in0.0 mm 0.00 in0.0 mm
08:15 PM 63.5°F17.5°C 53.2°F11.8°C 69% 6.2 mph W10.0 kmh W 8.3 mph13.4 kmh 30.15 in1021.0 mb 0.00 in0.0 mm 0.00 in0.0 mm 0.00 in0.0 mm
08:30 PM 63.5°F17.5°C 53.6°F12.0°C 70% 4.1 mph SW6.6 kmh SW 6.0 mph9.7 kmh 30.15 in1021.0 mb 0.00 in0.0 mm 0.00 in0.0 mm 0.00 in0.0 mm
08:45 PM 63.3°F17.4°C 53.4°F11.9°C 70% 3.0 mph SW4.8 kmh SW 4.5 mph7.2 kmh 30.14 in1020.7 mb 0.00 in0.0 mm 0.00 in0.0 mm 0.00 in0.0 mm
09:00 PM 62.8°F17.1°C 53.3°F11.8°C 71% 3.0 mph SW4.8 kmh SW 5.4 mph8.7 kmh 30.14 in1020.7 mb 0.00 in0.0 mm 0.00 in0.0 mm 0.00 in0.0 mm
09:15 PM 62.2°F16.8°C 53.5°F11.9°C 73% 2.9 mph SW4.7 kmh SW 3.8 mph6.1 kmh 30.15 in1021.0 mb 0.00 in0.0 mm 0.00 in0.0 mm 0.00 in0.0 mm
09:30 PM 61.9°F16.6°C 53.5°F11.9°C 74% 2.5 mph SW4.0 kmh SW 3.8 mph6.1 kmh 30.15 in1021.0 mb 0.00 in0.0 mm 0.00 in0.0 mm 0.00 in0.0 mm
09:45 PM 61.7°F16.5°C 53.7°F12.1°C 75% 2.8 mph W4.5 kmh W 5.4 mph8.7 kmh 30.15 in1021.0 mb 0.00 in0.0 mm 0.00 in0.0 mm 0.00 in0.0 mm
10:00 PM 61.7°F16.5°C 53.7°F12.1°C 75% 3.8 mph SW6.1 kmh SW 7.6 mph12.2 kmh 30.14 in1020.7 mb 0.00 in0.0 mm 0.00 in0.0 mm 0.00 in0.0 mm
10:15 PM 61.5°F16.4°C 53.9°F12.2°C 76% 3.2 mph SW5.1 kmh SW 5.4 mph8.7 kmh 30.15 in1021.0 mb 0.00 in0.0 mm 0.00 in0.0 mm 0.00 in0.0 mm
10:30 PM 61.0°F16.1°C 53.7°F12.1°C 77% 3.0 mph SW4.8 kmh SW 5.4 mph8.7 kmh 30.15 in1021.0 mb 0.00 in0.0 mm 0.00 in0.0 mm 0.00 in0.0 mm
10:45 PM 61.0°F16.1°C 54.1°F12.3°C 78% 4.0 mph SW6.4 kmh SW 5.4 mph8.7 kmh 30.16 in1021.3 mb 0.00 in0.0 mm 0.00 in0.0 mm 0.00 in0.0 mm
11:00 PM 61.0°F16.1°C 54.4°F12.4°C 79% 3.5 mph SW5.6 kmh SW 5.4 mph8.7 kmh 30.16 in1021.3 mb 0.00 in0.0 mm 0.00 in0.0 mm 0.00 in0.0 mm
11:15 PM 60.4°F15.8°C 54.3°F12.4°C 80% 1.8 mph WSW2.9 kmh WSW 3.1 mph5.0 kmh 30.16 in1021.3 mb 0.00 in0.0 mm 0.00 in0.0 mm 0.00 in0.0 mm
11:30 PM 60.1°F15.6°C 53.9°F12.2°C 80% 3.3 mph SSW5.3 kmh SSW 4.5 mph7.2 kmh 30.16 in1021.3 mb 0.00 in0.0 mm 0.00 in0.0 mm 0.00 in0.0 mm
11:45 PM 59.7°F15.4°C 53.9°F12.2°C 81% 2.4 mph SSW3.9 kmh SSW 4.5 mph7.2 kmh 30.15 in1021.0 mb 0.00 in0.0 mm 0.00 in0.0 mm 0.00 in0.0 mm